createdAt,value
2023-03-04T00:00:07.813Z,100497.80
2023-03-04T00:05:33.813Z,100479.94
2023-03-04T00:10:39.511Z,100474.08
2023-03-04T00:15:45.091Z,100468.89
2023-03-04T00:20:50.863Z,100465.23
2023-03-04T00:25:55.176Z,100462.05
2023-03-04T00:30:59.045Z,100449.98
2023-03-04T00:36:03.716Z,100437.70
2023-03-04T00:41:07.556Z,100430.52
2023-03-04T00:46:11.229Z,100420.21
2023-03-04T00:51:15.029Z,100415.81
2023-03-04T00:56:19.415Z,100412.93
2023-03-04T01:01:23.309Z,100414.48
2023-03-04T01:06:29.010Z,100413.49
2023-03-04T01:11:32.923Z,100408.10
2023-03-04T01:16:36.941Z,100396.14
2023-03-04T01:21:41.311Z,100385.27
2023-03-04T01:26:45.153Z,100379.35
2023-03-04T01:31:48.769Z,100370.70
2023-03-04T01:36:52.497Z,100357.96
2023-03-04T01:41:56.480Z,100348.60
2023-03-04T01:47:01.511Z,100337.31
2023-03-04T01:52:05.284Z,100328.77
2023-03-04T01:57:26.672Z,100323.56
2023-03-04T02:02:30.565Z,100316.88
2023-03-04T02:07:34.504Z,100314.38
2023-03-04T02:12:38.729Z,100312.86
2023-03-04T02:17:42.724Z,100317.93
2023-03-04T02:23:14.168Z,100317.60
2023-03-04T02:28:17.912Z,100317.58
2023-03-04T02:33:21.740Z,100321.80
2023-03-04T02:38:25.667Z,100314.57
2023-03-04T02:43:29.419Z,100296.90
2023-03-04T02:48:33.500Z,100292.91
2023-03-04T02:53:39.133Z,100288.26
2023-03-04T02:58:43.338Z,100284.49
2023-03-04T03:03:47.391Z,100279.71
2023-03-04T03:08:51.273Z,100269.92
2023-03-04T03:13:57.122Z,100272.98
2023-03-04T03:19:01.810Z,100270.07
2023-03-04T03:24:06.016Z,100267.60
2023-03-04T03:29:09.750Z,100262.83
2023-03-04T03:34:13.836Z,100262.77
2023-03-04T03:39:18.636Z,100264.39
2023-03-04T03:44:25.156Z,100264.85
2023-03-04T03:49:28.869Z,100259.55
2023-03-04T03:54:32.496Z,100249.23
2023-03-04T03:59:36.427Z,100243.71
2023-03-04T04:04:40.163Z,100236.14
2023-03-04T04:09:44.973Z,100238.16
2023-03-04T04:14:48.826Z,100237.02
2023-03-04T04:19:52.527Z,100230.10
2023-03-04T04:24:56.154Z,100232.09
2023-03-04T04:30:00.195Z,100230.65
2023-03-04T04:35:04.406Z,100224.72
2023-03-04T04:40:08.915Z,100214.10
2023-03-04T04:45:12.650Z,100207.14
2023-03-04T04:50:16.642Z,100200.18
2023-03-04T04:55:21.067Z,100192.07
2023-03-04T05:00:25.221Z,100178.95
2023-03-04T05:05:29.661Z,100181.08
2023-03-04T05:10:34.406Z,100173.23
2023-03-04T05:15:39.729Z,100178.73
2023-03-04T05:20:43.688Z,100185.14
2023-03-04T05:25:48.147Z,100192.73
2023-03-04T05:30:51.897Z,100189.14
2023-03-04T05:35:55.644Z,100184.14
2023-03-04T05:41:04.732Z,100181.01
2023-03-04T05:46:09.407Z,100190.02
2023-03-04T05:51:13.326Z,100180.67
2023-03-04T05:56:19.950Z,100179.48
2023-03-04T06:01:24.100Z,100182.48
2023-03-04T06:06:27.842Z,100185.93
2023-03-04T06:11:31.675Z,100181.40
2023-03-04T06:16:35.474Z,100186.94
2023-03-04T06:21:39.321Z,100179.64
2023-03-04T06:26:43.012Z,100181.90
2023-03-04T06:31:46.829Z,100179.55
2023-03-04T06:36:50.604Z,100186.96
2023-03-04T06:41:54.283Z,100199.80
2023-03-04T06:46:58.199Z,100195.66
2023-03-04T06:52:02.653Z,100196.23
2023-03-04T06:57:07.474Z,100202.72
2023-03-04T07:02:13.136Z,100210.33
2023-03-04T07:07:17.360Z,100217.55
2023-03-04T07:12:21.095Z,100209.26
2023-03-04T07:17:24.919Z,100217.44
2023-03-04T07:22:28.624Z,100216.60
2023-03-04T07:27:32.847Z,100212.09
2023-03-04T07:32:36.575Z,100215.59
2023-03-04T07:37:41.776Z,100211.66
2023-03-04T07:42:50.867Z,100212.49
2023-03-04T07:47:54.697Z,100208.25
2023-03-04T07:52:58.541Z,100205.08
2023-03-04T07:58:03.528Z,100203.95
2023-03-04T08:03:07.462Z,100198.17
2023-03-04T08:08:12.126Z,100199.08
2023-03-04T08:13:16.323Z,100194.42
2023-03-04T08:18:21.793Z,100194.19
2023-03-04T08:23:28.564Z,100189.99
2023-03-04T08:28:32.668Z,100178.70
2023-03-04T08:33:37.996Z,100173.40
2023-03-04T08:38:42.688Z,100168.93
2023-03-04T08:43:47.483Z,100170.41
2023-03-04T08:48:51.129Z,100168.00
2023-03-04T08:53:54.921Z,100167.27
2023-03-04T08:58:59.529Z,100169.36
2023-03-04T09:04:03.123Z,100163.30
2023-03-04T09:09:07.007Z,100166.66
2023-03-04T09:14:10.783Z,100158.74
2023-03-04T09:19:15.025Z,100162.35
2023-03-04T09:24:18.550Z,100167.55
2023-03-04T09:29:23.026Z,100165.18
2023-03-04T09:34:27.965Z,100167.37
2023-03-04T09:39:32.597Z,100169.60
2023-03-04T09:44:43.822Z,100165.98
2023-03-04T09:50:08.824Z,100168.81
2023-03-04T09:55:36.938Z,100163.66
2023-03-04T10:01:05.233Z,100157.77
2023-03-04T10:06:13.852Z,100148.06
2023-03-04T10:11:25.655Z,100142.20
2023-03-04T10:16:53.922Z,100136.92
2023-03-04T10:21:57.917Z,100131.17
2023-03-04T10:27:07.722Z,100121.40
2023-03-04T10:32:20.129Z,100116.04
2023-03-04T10:37:23.978Z,100111.61
2023-03-04T10:42:30.622Z,100104.55
2023-03-04T10:47:35.687Z,100102.50
2023-03-04T10:52:48.123Z,100102.05
2023-03-04T10:57:57.796Z,100100.41
2023-03-04T11:03:27.891Z,100092.38
2023-03-04T11:08:33.011Z,100088.48
2023-03-04T11:13:36.723Z,100086.70
2023-03-04T11:18:53.878Z,100089.89
2023-03-04T11:24:29.147Z,100085.88
2023-03-04T11:29:40.061Z,100087.11
2023-03-04T11:34:57.321Z,100079.58
2023-03-04T11:40:40.337Z,100078.23
2023-03-04T11:46:30.265Z,100073.97
2023-03-04T11:52:03.557Z,100066.64
2023-03-04T11:57:13.923Z,100059.40
2023-03-04T12:02:23.160Z,100057.73
2023-03-04T12:08:08.266Z,100056.46
2023-03-04T12:13:50.807Z,100047.72
2023-03-04T12:49:21.053Z,100028.30
2023-03-04T13:00:36.332Z,100020.89
2023-03-04T13:06:04.126Z,100018.45
2023-03-04T13:11:26.578Z,100018.51
2023-03-04T13:16:39.462Z,100023.90
2023-03-04T13:21:50.093Z,100016.06
2023-03-04T13:26:53.766Z,100015.10
2023-03-04T13:32:00.640Z,100011.14
2023-03-04T13:37:30.782Z,100003.39
2023-03-04T13:42:45.213Z,100000.23
2023-03-04T13:47:49.350Z,100005.17
2023-03-04T13:52:54.441Z,99998.58
2023-03-04T13:57:58.382Z,99998.65
2023-03-04T14:03:18.585Z,99997.10
2023-03-04T14:08:26.223Z,99994.63
2023-03-04T14:13:30.103Z,99990.19
2023-03-04T14:18:35.236Z,99986.37
2023-03-04T14:23:39.264Z,99983.67
2023-03-04T14:28:48.669Z,99980.97
2023-03-04T14:34:00.276Z,99978.79
2023-03-04T14:39:08.193Z,99973.13
2023-03-04T14:44:36.329Z,99978.98
2023-03-04T14:49:41.389Z,99993.06
2023-03-04T14:55:01.762Z,99991.55
2023-03-04T15:00:25.873Z,99986.15
2023-03-04T15:05:50.022Z,99978.69
2023-03-04T15:11:02.097Z,99978.95
2023-03-04T15:16:07.594Z,99976.00
2023-03-04T15:21:20.434Z,99975.67
2023-03-04T15:26:26.044Z,99977.13
2023-03-04T15:31:31.197Z,99973.54
2023-03-04T15:36:35.047Z,99977.10
2023-03-04T15:41:38.871Z,99977.24
2023-03-04T15:46:43.147Z,99969.77
2023-03-04T15:51:50.771Z,99966.56
2023-03-04T15:56:59.191Z,99968.19
2023-03-04T16:02:04.395Z,99963.99
2023-03-04T16:07:08.324Z,99969.33
2023-03-04T16:12:15.036Z,99967.45
2023-03-04T16:17:20.419Z,99972.02
2023-03-04T16:22:30.748Z,99970.45
2023-03-04T16:27:38.535Z,99974.25
2023-03-04T16:32:42.813Z,99976.80
2023-03-04T16:37:48.195Z,99983.88
2023-03-04T16:42:54.441Z,99985.76
2023-03-04T16:47:58.817Z,99987.75
2023-03-04T16:53:05.905Z,99994.69
2023-03-04T16:58:10.470Z,99998.35
2023-03-04T17:03:16.940Z,100008.59
2023-03-04T17:08:23.139Z,100013.64
2023-03-04T17:13:29.708Z,100017.14
2023-03-04T17:18:36.118Z,100021.53
2023-03-04T17:23:40.672Z,100028.39
2023-03-04T17:28:46.152Z,100029.35
2023-03-04T17:33:51.222Z,100030.61
2023-03-04T17:38:57.528Z,100030.55
2023-03-04T17:44:02.688Z,100031.73
2023-03-04T17:49:07.367Z,100035.73
2023-03-04T17:54:12.962Z,100035.27
2023-03-04T17:59:20.457Z,100039.64
2023-03-04T18:04:25.337Z,100040.09
2023-03-04T18:09:29.957Z,100043.23
2023-03-04T18:14:38.170Z,100046.27
2023-03-04T18:19:43.983Z,100047.74
2023-03-04T18:24:49.091Z,100049.98
2023-03-04T18:29:55.355Z,100051.20
2023-03-04T18:35:02.965Z,100055.25
2023-03-04T18:40:09.721Z,100052.98
2023-03-04T18:45:18.431Z,100056.75
2023-03-04T18:50:26.247Z,100060.52
2023-03-04T18:55:33.774Z,100067.11
2023-03-04T19:00:41.176Z,100074.70
2023-03-04T19:05:47.858Z,100095.92
2023-03-04T19:10:53.408Z,100090.60
2023-03-04T19:16:00.406Z,100090.89
2023-03-04T19:28:20.045Z,100093.23
2023-03-04T19:33:28.428Z,100096.67
2023-03-04T19:38:37.321Z,100103.83
2023-03-04T19:43:44.875Z,100105.41
2023-03-04T19:48:55.849Z,100108.94
2023-03-04T20:00:38.083Z,100117.13
2023-03-04T20:05:47.592Z,100126.58
2023-03-04T20:10:55.671Z,100131.39
2023-03-04T20:16:04.273Z,100133.24
2023-03-04T20:21:13.285Z,100136.91
2023-03-04T20:26:23.173Z,100136.75
2023-03-04T20:31:32.393Z,100133.02
2023-03-04T20:36:39.730Z,100128.46
2023-03-04T20:41:46.616Z,100128.51
2023-03-04T20:46:52.838Z,100134.20
2023-03-04T20:52:03.867Z,100141.19
2023-03-04T20:57:11.081Z,100138.90
2023-03-04T21:02:19.026Z,100135.77
2023-03-04T21:07:25.337Z,100134.13
2023-03-04T21:12:30.683Z,100130.37
2023-03-04T21:17:35.348Z,100132.32
2023-03-04T21:22:40.028Z,100136.17
2023-03-04T21:27:46.553Z,100135.39
2023-03-04T21:32:51.666Z,100133.79
2023-03-04T21:37:57.334Z,100132.55
2023-03-04T21:43:02.295Z,100128.27
2023-03-04T21:48:08.902Z,100132.62
2023-03-04T21:53:13.408Z,100133.88
2023-03-04T21:58:18.109Z,100134.60
2023-03-04T22:03:23.563Z,100135.74
2023-03-04T22:08:28.246Z,100134.26
2023-03-04T22:13:33.746Z,100130.12
2023-03-04T22:18:41.665Z,100127.27
2023-03-04T22:23:47.161Z,100128.70
2023-03-04T22:28:50.966Z,100128.20
2023-03-04T22:33:54.924Z,100129.77
2023-03-04T22:38:58.897Z,100128.79
2023-03-04T22:44:06.419Z,100125.27
2023-03-04T22:49:13.510Z,100128.06
2023-03-04T22:54:19.041Z,100126.66
2023-03-04T22:59:23.346Z,100128.13
2023-03-04T23:04:27.883Z,100133.66
2023-03-04T23:09:32.321Z,100127.75
2023-03-04T23:14:37.776Z,100118.30
2023-03-04T23:19:41.579Z,100120.27
2023-03-04T23:24:45.368Z,100121.04
2023-03-04T23:29:50.294Z,100120.88
2023-03-04T23:34:55.752Z,100113.98
2023-03-04T23:39:59.329Z,100111.38
2023-03-04T23:45:06.145Z,100113.63
2023-03-04T23:50:12.502Z,100114.47
2023-03-04T23:55:20.400Z,100115.87
